< < Back
Terminal Aerodrome Forecast


Current Version              Previous Versions:   1  2  3  4  5  6  7  8  9  

Terminal Aerodrome Forecast

102
FTUS42 KJAX 282100 AAB
TAFGNV
TAF AMD
KGNV 282108Z 2821/2918 25014G20KT P6SM VCSH SCT040 SCT250
     FM290200 25008KT P6SM VCSH FEW015 BKN035 BKN250
     FM290700 27005KT 5SM BR VCSH SCT010 SCT250
     FM291300 29010KT P6SM VCSH SCT015 SCT080 SCT250=

Latest METAR

391
SAUS70 KWBC 290500 RRG
MTRGNV
METAR KGNV 290453Z AUTO 25009KT 9SM FEW021 27/25 A2993 RMK AO2 SLP132
T02670250 403390250


USA.gov is the U.S. government's official web portal to all federal, state and local government web resources and services.